createdAt,value
2022-08-26T00:00:55.681Z,100386.59
2022-08-26T00:03:35.035Z,100385.79
2022-08-26T00:06:21.655Z,100385.48
2022-08-26T00:08:56.062Z,100384.49
2022-08-26T00:11:49.109Z,100379.16
2022-08-26T00:14:31.240Z,100377.84
2022-08-26T00:17:19.233Z,100382.02
2022-08-26T00:20:21.828Z,100384.06
2022-08-26T00:23:24.133Z,100382.89
2022-08-26T00:26:15.010Z,100377.75
2022-08-26T00:28:47.179Z,100377.64
2022-08-26T00:31:31.123Z,100376.98
2022-08-26T00:34:19.311Z,100377.57
2022-08-26T00:37:11.628Z,100376.02
2022-08-26T00:40:00.619Z,100377.50
2022-08-26T00:42:57.901Z,100372.88
2022-08-26T00:46:26.704Z,100371.29
2022-08-26T00:49:35.422Z,100373.31
2022-08-26T00:52:52.996Z,100377.28
2022-08-26T00:55:37.808Z,100378.91
2022-08-26T00:58:34.313Z,100380.92
2022-08-26T01:01:19.895Z,100384.70
2022-08-26T01:04:05.010Z,100385.48
2022-08-26T01:10:21.883Z,100390.23
2022-08-26T01:13:22.413Z,100393.83
2022-08-26T01:16:05.597Z,100392.05
2022-08-26T01:18:48.082Z,100393.48
2022-08-26T01:21:40.695Z,100394.20
2022-08-26T01:24:16.694Z,100390.09
2022-08-26T01:27:03.831Z,100391.88
2022-08-26T01:29:45.440Z,100391.31
2022-08-26T01:32:26.799Z,100387.01
2022-08-26T01:35:03.663Z,100387.73
2022-08-26T01:37:58.493Z,100384.16
2022-08-26T01:40:38.878Z,100380.75
2022-08-26T01:43:33.566Z,100385.06
2022-08-26T01:46:15.274Z,100381.30
2022-08-26T01:48:47.525Z,100379.50
2022-08-26T01:51:27.770Z,100382.02
2022-08-26T01:54:23.495Z,100382.00
2022-08-26T01:56:56.782Z,100381.27
2022-08-26T01:59:35.731Z,100379.32
2022-08-26T02:02:28.542Z,100379.14
2022-08-26T02:05:06.703Z,100378.80
2022-08-26T02:08:24.602Z,100381.50
2022-08-26T02:11:26.766Z,100376.13
2022-08-26T02:14:13.607Z,100379.37
2022-08-26T02:16:51.181Z,100381.69
2022-08-26T02:19:36.579Z,100384.91
2022-08-26T02:22:12.273Z,100385.64
2022-08-26T02:24:54.119Z,100384.75
2022-08-26T02:27:40.819Z,100385.11
2022-08-26T02:30:32.561Z,100381.90
2022-08-26T02:33:19.516Z,100381.00
2022-08-26T02:36:08.405Z,100377.95
2022-08-26T02:39:27.459Z,100379.20
2022-08-26T02:42:10.079Z,100381.16
2022-08-26T02:44:53.227Z,100382.39
2022-08-26T02:47:53.362Z,100381.11
2022-08-26T02:50:43.611Z,100374.83
2022-08-26T02:53:17.151Z,100376.44
2022-08-26T02:56:33.905Z,100378.23
2022-08-26T02:59:15.759Z,100376.63
2022-08-26T03:02:14.538Z,100377.88
2022-08-26T03:05:15.986Z,100375.55
2022-08-26T03:08:00.917Z,100375.36
2022-08-26T03:10:50.051Z,100375.02
2022-08-26T03:13:21.859Z,100374.46
2022-08-26T03:16:04.303Z,100367.32
2022-08-26T03:18:58.387Z,100368.20
2022-08-26T03:21:50.073Z,100368.38
2022-08-26T03:24:41.480Z,100368.91
2022-08-26T03:27:15.495Z,100372.13
2022-08-26T03:30:13.920Z,100368.02
2022-08-26T03:32:53.640Z,100368.53
2022-08-26T03:35:43.529Z,100365.65
2022-08-26T03:38:28.035Z,100369.77
2022-08-26T03:41:12.934Z,100363.15
2022-08-26T03:43:42.964Z,100364.39
2022-08-26T03:46:21.732Z,100359.22
2022-08-26T03:48:54.406Z,100356.90
2022-08-26T03:51:27.255Z,100359.94
2022-08-26T03:54:03.437Z,100358.86
2022-08-26T03:56:38.026Z,100357.09
2022-08-26T03:59:22.696Z,100359.59
2022-08-26T04:02:19.900Z,100356.57
2022-08-26T04:05:00.626Z,100358.18
2022-08-26T04:07:40.482Z,100351.75
2022-08-26T04:10:34.612Z,100350.70
2022-08-26T04:13:13.255Z,100351.40
2022-08-26T04:16:04.464Z,100352.82
2022-08-26T04:19:08.630Z,100353.02
2022-08-26T04:24:45.171Z,100352.15
2022-08-26T04:27:23.870Z,100351.11
2022-08-26T04:30:26.210Z,100354.88
2022-08-26T04:33:46.584Z,100359.16
2022-08-26T04:36:30.180Z,100362.23
2022-08-26T04:39:18.803Z,100359.34
2022-08-26T04:42:11.598Z,100358.63
2022-08-26T04:44:48.994Z,100358.61
2022-08-26T04:47:46.502Z,100357.36
2022-08-26T04:50:26.666Z,100359.31
2022-08-26T04:52:59.615Z,100360.17
2022-08-26T04:55:55.507Z,100356.94
2022-08-26T04:58:44.882Z,100355.67
2022-08-26T05:01:43.418Z,100355.48
2022-08-26T05:04:20.957Z,100361.72
2022-08-26T05:07:03.320Z,100359.18
2022-08-26T05:09:50.571Z,100362.56
2022-08-26T05:13:11.193Z,100360.91
2022-08-26T05:16:01.268Z,100363.00
2022-08-26T05:19:14.404Z,100359.20
2022-08-26T05:22:48.004Z,100363.63
2022-08-26T05:26:00.317Z,100363.00
2022-08-26T05:29:02.173Z,100362.39
2022-08-26T05:31:34.050Z,100363.20
2022-08-26T05:34:30.131Z,100366.70
2022-08-26T05:37:21.996Z,100371.41
2022-08-26T05:39:51.526Z,100370.94
2022-08-26T05:43:05.078Z,100373.70
2022-08-26T05:46:22.425Z,100374.98
2022-08-26T05:49:12.290Z,100375.55
2022-08-26T05:51:53.268Z,100374.88
2022-08-26T05:54:52.427Z,100377.45
2022-08-26T05:57:39.971Z,100376.42
2022-08-26T06:00:32.170Z,100377.38
2022-08-26T06:03:19.655Z,100372.74
2022-08-26T06:05:54.661Z,100371.16
2022-08-26T06:08:45.143Z,100371.36
2022-08-26T06:11:41.323Z,100370.09
2022-08-26T06:14:14.773Z,100367.56
2022-08-26T06:17:01.325Z,100365.24
2022-08-26T06:23:12.326Z,100363.44
2022-08-26T06:25:52.518Z,100367.74
2022-08-26T06:28:48.301Z,100365.80
2022-08-26T06:31:31.218Z,100362.05
2022-08-26T06:34:10.379Z,100361.50
2022-08-26T06:36:47.604Z,100367.94
2022-08-26T06:39:36.276Z,100370.09
2022-08-26T06:42:22.488Z,100368.08
2022-08-26T06:45:00.825Z,100369.27
2022-08-26T06:47:40.828Z,100370.04
2022-08-26T06:50:36.421Z,100366.56
2022-08-26T06:53:29.663Z,100371.09
2022-08-26T06:56:13.299Z,100367.11
2022-08-26T06:58:58.168Z,100370.02
2022-08-26T07:01:30.718Z,100370.58
2022-08-26T07:04:28.539Z,100369.58
2022-08-26T07:07:05.082Z,100364.63
2022-08-26T07:09:45.055Z,100368.69
2022-08-26T07:12:15.913Z,100367.70
2022-08-26T07:14:54.102Z,100369.80
2022-08-26T07:17:50.249Z,100371.80
2022-08-26T07:20:37.041Z,100371.08
2022-08-26T07:23:26.593Z,100368.10
2022-08-26T07:26:30.086Z,100364.41
2022-08-26T07:29:37.942Z,100361.53
2022-08-26T07:32:32.534Z,100360.44
2022-08-26T07:35:10.090Z,100363.57
2022-08-26T07:37:58.761Z,100365.61
2022-08-26T07:40:38.300Z,100361.72
2022-08-26T07:43:10.165Z,100364.85
2022-08-26T07:45:58.172Z,100364.02
2022-08-26T07:48:55.871Z,100362.98
2022-08-26T07:51:44.081Z,100360.63
2022-08-26T07:54:14.733Z,100351.89
2022-08-26T07:56:56.247Z,100354.52
2022-08-26T07:59:33.503Z,100354.16
2022-08-26T08:02:09.143Z,100354.33
2022-08-26T08:05:15.683Z,100353.33
2022-08-26T08:08:26.292Z,100352.52
2022-08-26T08:11:05.521Z,100350.74
2022-08-26T08:13:56.839Z,100347.17
2022-08-26T08:16:32.281Z,100343.15
2022-08-26T08:19:36.867Z,100343.25
2022-08-26T08:22:17.059Z,100343.48
2022-08-26T08:25:00.471Z,100338.67
2022-08-26T08:27:52.715Z,100337.73
2022-08-26T08:30:25.818Z,100339.61
2022-08-26T08:33:03.787Z,100338.79
2022-08-26T08:35:44.921Z,100335.43
2022-08-26T08:38:39.687Z,100333.02
2022-08-26T08:42:13.241Z,100327.38
2022-08-26T08:45:01.556Z,100329.96
2022-08-26T08:47:47.425Z,100328.26
2022-08-26T08:50:42.461Z,100327.23
2022-08-26T08:53:43.167Z,100322.02
2022-08-26T08:57:05.443Z,100323.48
2022-08-26T08:59:53.748Z,100323.13
2022-08-26T09:02:36.619Z,100319.55
2022-08-26T09:05:48.752Z,100314.52
2022-08-26T09:08:37.764Z,100309.73
2022-08-26T09:11:15.337Z,100308.90
2022-08-26T09:14:22.953Z,100309.80
2022-08-26T09:17:52.553Z,100306.85
2022-08-26T09:20:54.072Z,100308.85
2022-08-26T09:23:53.147Z,100307.70
2022-08-26T09:26:50.255Z,100303.44
2022-08-26T09:29:44.365Z,100303.02
2022-08-26T09:32:35.769Z,100298.31
2022-08-26T09:35:33.302Z,100300.29
2022-08-26T09:38:28.151Z,100298.31
2022-08-26T09:41:37.492Z,100295.36
2022-08-26T09:44:32.999Z,100292.83
2022-08-26T09:47:09.541Z,100288.27
2022-08-26T09:49:56.845Z,100291.05
2022-08-26T09:52:55.127Z,100284.27
2022-08-26T09:55:28.745Z,100282.39
2022-08-26T09:58:10.605Z,100286.43
2022-08-26T10:01:16.024Z,100287.95
2022-08-26T10:03:59.055Z,100281.27
2022-08-26T10:06:59.587Z,100282.52
2022-08-26T10:09:53.014Z,100277.97
2022-08-26T10:12:48.204Z,100275.65
2022-08-26T10:15:34.158Z,100276.98
2022-08-26T10:18:36.986Z,100282.73
2022-08-26T10:21:27.154Z,100281.52
2022-08-26T10:24:43.583Z,100275.39
2022-08-26T10:27:54.746Z,100273.50
2022-08-26T10:30:37.771Z,100271.27
2022-08-26T10:33:23.948Z,100271.14
2022-08-26T10:37:05.023Z,100268.81
2022-08-26T10:39:38.632Z,100266.77
2022-08-26T10:42:37.532Z,100269.64
2022-08-26T10:45:53.906Z,100264.08
2022-08-26T10:49:11.307Z,100260.30
2022-08-26T10:52:02.245Z,100256.27
2022-08-26T10:55:10.732Z,100253.55
2022-08-26T10:58:11.796Z,100251.20
2022-08-26T11:01:16.205Z,100247.77
2022-08-26T11:04:06.517Z,100251.70
2022-08-26T11:07:29.112Z,100245.25
2022-08-26T11:10:12.956Z,100247.23
2022-08-26T11:12:49.641Z,100244.40
2022-08-26T11:15:54.563Z,100239.90
2022-08-26T11:18:41.055Z,100235.26
2022-08-26T11:22:14.012Z,100234.73
2022-08-26T11:25:05.661Z,100234.35
2022-08-26T11:28:17.682Z,100231.75
2022-08-26T11:30:58.336Z,100224.48
2022-08-26T11:34:04.114Z,100222.86
2022-08-26T11:36:41.412Z,100223.64
2022-08-26T11:39:54.070Z,100221.52
2022-08-26T11:42:56.287Z,100219.31
2022-08-26T11:46:00.155Z,100220.18
2022-08-26T11:48:50.384Z,100216.52
2022-08-26T11:51:38.206Z,100214.32
2022-08-26T11:54:32.725Z,100207.20
2022-08-26T11:57:28.621Z,100205.50
2022-08-26T12:00:22.353Z,100200.20
2022-08-26T12:02:53.570Z,100203.19
2022-08-26T12:05:49.742Z,100200.02
2022-08-26T12:08:41.805Z,100202.02
2022-08-26T12:11:29.352Z,100198.88
2022-08-26T12:14:31.279Z,100195.02
2022-08-26T12:17:32.761Z,100188.30
2022-08-26T12:20:57.158Z,100188.15
2022-08-26T12:24:06.809Z,100180.05
2022-08-26T12:27:22.044Z,100180.40
2022-08-26T12:30:37.961Z,100176.41
2022-08-26T12:33:29.534Z,100174.99
2022-08-26T12:36:10.771Z,100169.92
2022-08-26T12:38:58.088Z,100169.17
2022-08-26T12:42:08.385Z,100167.65
2022-08-26T12:45:10.533Z,100158.77
2022-08-26T12:47:57.956Z,100156.52
2022-08-26T12:50:42.852Z,100155.08
2022-08-26T12:53:25.942Z,100150.10
2022-08-26T12:56:32.822Z,100145.36
2022-08-26T12:59:31.221Z,100138.00
2022-08-26T13:02:41.298Z,100133.63
2022-08-26T13:06:15.684Z,100133.38
2022-08-26T13:12:14.971Z,100123.45
2022-08-26T13:15:32.269Z,100124.44
2022-08-26T13:18:23.531Z,100122.61
2022-08-26T13:21:23.184Z,100120.96
2022-08-26T13:24:49.061Z,100119.94
2022-08-26T13:27:41.544Z,100115.02
2022-08-26T13:30:36.127Z,100118.98
2022-08-26T13:33:22.294Z,100116.27
2022-08-26T13:36:10.196Z,100111.41
2022-08-26T13:38:55.712Z,100110.45
2022-08-26T13:42:07.046Z,100114.36
2022-08-26T13:48:00.517Z,100108.27
2022-08-26T13:50:33.997Z,100106.30
2022-08-26T13:53:19.542Z,100103.17
2022-08-26T13:56:29.235Z,100101.10
2022-08-26T13:59:07.978Z,100100.66
2022-08-26T14:01:47.669Z,100096.33
2022-08-26T14:04:30.373Z,100094.58
2022-08-26T14:07:25.825Z,100093.78
2022-08-26T14:10:22.144Z,100095.97
2022-08-26T14:12:57.033Z,100093.70
2022-08-26T14:15:54.722Z,100094.15
2022-08-26T14:18:48.599Z,100090.85
2022-08-26T14:21:26.543Z,100089.89
2022-08-26T14:24:10.479Z,100090.55
2022-08-26T14:26:49.836Z,100091.38
2022-08-26T14:29:51.062Z,100092.70
2022-08-26T14:32:42.496Z,100087.27
2022-08-26T14:35:22.324Z,100081.39
2022-08-26T14:37:58.402Z,100081.89
2022-08-26T14:40:37.664Z,100073.95
2022-08-26T14:43:17.472Z,100074.48
2022-08-26T14:46:30.138Z,100068.73
2022-08-26T14:49:09.867Z,100063.36
2022-08-26T14:51:50.458Z,100067.54
2022-08-26T14:54:32.490Z,100064.23
2022-08-26T14:57:09.482Z,100064.70
2022-08-26T14:59:55.757Z,100062.38
2022-08-26T15:03:02.152Z,100071.76
2022-08-26T15:05:51.544Z,100067.69
2022-08-26T15:08:30.303Z,100064.81
2022-08-26T15:11:22.158Z,100063.91
2022-08-26T15:14:05.444Z,100063.89
2022-08-26T15:16:55.905Z,100064.29
2022-08-26T15:19:40.119Z,100061.60
2022-08-26T15:22:15.533Z,100060.33
2022-08-26T15:25:29.520Z,100053.90
2022-08-26T15:28:23.072Z,100055.72
2022-08-26T15:31:37.914Z,100052.84
2022-08-26T15:34:42.309Z,100051.02
2022-08-26T15:37:33.062Z,100046.41
2022-08-26T15:40:23.537Z,100040.84
2022-08-26T15:43:35.561Z,100037.27
2022-08-26T15:46:58.753Z,100040.20
2022-08-26T15:53:48.688Z,100035.39
2022-08-26T15:59:57.903Z,100036.84
2022-08-26T16:06:04.252Z,100037.72
2022-08-26T16:09:07.511Z,100038.06
2022-08-26T16:11:56.060Z,100036.85
2022-08-26T16:14:56.565Z,100037.00
2022-08-26T16:17:46.320Z,100033.89
2022-08-26T16:20:27.097Z,100037.73
2022-08-26T16:23:22.659Z,100034.62
2022-08-26T16:26:21.837Z,100035.80
2022-08-26T16:29:19.391Z,100032.19
2022-08-26T16:32:29.432Z,100034.05
2022-08-26T16:35:18.372Z,100035.16
2022-08-26T16:38:39.014Z,100031.34
2022-08-26T16:41:28.238Z,100029.66
2022-08-26T16:44:35.134Z,100032.34
2022-08-26T16:47:26.270Z,100031.53
2022-08-26T16:50:21.004Z,100033.44
2022-08-26T16:54:02.888Z,100035.77
2022-08-26T16:56:50.581Z,100034.87
2022-08-26T16:59:26.438Z,100037.59
2022-08-26T17:02:17.298Z,100040.06
2022-08-26T17:05:09.205Z,100034.33
2022-08-26T17:08:12.052Z,100038.69
2022-08-26T17:11:03.512Z,100038.73
2022-08-26T17:14:27.761Z,100036.36
2022-08-26T17:17:14.559Z,100037.95
2022-08-26T17:20:45.040Z,100036.86
2022-08-26T17:23:47.031Z,100038.80
2022-08-26T17:26:47.838Z,100037.65
2022-08-26T17:29:40.736Z,100043.79
2022-08-26T17:32:15.138Z,100041.16
2022-08-26T17:35:00.009Z,100043.46
2022-08-26T17:37:45.401Z,100044.55
2022-08-26T17:40:38.969Z,100046.21
2022-08-26T17:43:40.489Z,100051.64
2022-08-26T17:46:40.495Z,100053.27
2022-08-26T17:49:54.244Z,100050.27
2022-08-26T17:52:53.271Z,100049.05
2022-08-26T17:58:50.944Z,100051.11
2022-08-26T18:05:29.387Z,100049.48
2022-08-26T18:08:39.512Z,100046.92
2022-08-26T18:11:34.816Z,100047.45
2022-08-26T18:14:33.014Z,100051.25
2022-08-26T18:17:18.172Z,100057.15
2022-08-26T18:20:16.343Z,100055.93
2022-08-26T18:24:01.879Z,100058.64
2022-08-26T18:26:54.069Z,100064.97
2022-08-26T18:29:45.466Z,100059.09
2022-08-26T18:32:34.874Z,100054.98
2022-08-26T18:35:22.078Z,100054.51
2022-08-26T18:38:17.258Z,100056.69
2022-08-26T18:40:49.837Z,100055.64
2022-08-26T18:44:13.944Z,100060.52
2022-08-26T18:46:52.996Z,100059.31
2022-08-26T18:53:04.229Z,100063.57
2022-08-26T18:56:00.228Z,100060.30
2022-08-26T18:58:49.771Z,100061.39
2022-08-26T19:01:51.409Z,100063.88
2022-08-26T19:04:45.146Z,100065.90
2022-08-26T19:08:10.132Z,100063.85
2022-08-26T19:10:55.967Z,100063.14
2022-08-26T19:14:09.803Z,100068.55
2022-08-26T19:17:12.443Z,100066.60
2022-08-26T19:19:53.576Z,100066.80
2022-08-26T19:22:51.761Z,100065.15
2022-08-26T19:25:42.008Z,100062.10
2022-08-26T19:28:36.802Z,100065.89
2022-08-26T19:31:24.044Z,100064.40
2022-08-26T19:35:07.443Z,100064.59
2022-08-26T19:38:07.232Z,100063.61
2022-08-26T19:41:01.554Z,100065.77
2022-08-26T19:43:35.574Z,100069.66
2022-08-26T19:46:43.853Z,100067.39
2022-08-26T19:49:48.817Z,100064.31
2022-08-26T19:52:29.842Z,100065.27
2022-08-26T19:55:37.013Z,100065.94
2022-08-26T19:58:12.730Z,100070.96
2022-08-26T20:00:50.967Z,100069.45
2022-08-26T20:03:48.637Z,100071.69
2022-08-26T20:06:39.640Z,100068.05
2022-08-26T20:09:17.617Z,100071.43
2022-08-26T20:12:22.950Z,100069.95
2022-08-26T20:15:20.779Z,100073.14
2022-08-26T20:18:32.741Z,100070.61
2022-08-26T20:21:35.012Z,100072.59
2022-08-26T20:24:37.305Z,100072.73
2022-08-26T20:27:38.622Z,100073.27
2022-08-26T20:30:54.206Z,100076.67
2022-08-26T20:34:03.253Z,100072.90
2022-08-26T20:36:58.902Z,100075.58
2022-08-26T20:40:01.800Z,100075.86
2022-08-26T20:43:06.740Z,100077.17
2022-08-26T20:46:24.679Z,100078.52
2022-08-26T20:49:40.988Z,100078.80
2022-08-26T20:52:31.947Z,100078.91
2022-08-26T20:55:30.005Z,100082.63
2022-08-26T20:58:23.493Z,100083.76
2022-08-26T21:01:12.795Z,100087.02
2022-08-26T21:03:51.990Z,100090.55
2022-08-26T21:06:54.084Z,100094.92
2022-08-26T21:09:42.986Z,100093.68
2022-08-26T21:12:34.253Z,100098.02
2022-08-26T21:15:16.219Z,100095.70
2022-08-26T21:18:02.445Z,100095.72
2022-08-26T21:20:53.909Z,100097.40
2022-08-26T21:24:11.354Z,100093.00
2022-08-26T21:27:02.936Z,100093.09
2022-08-26T21:29:37.392Z,100092.06
2022-08-26T21:32:56.560Z,100092.83
2022-08-26T21:35:42.185Z,100091.09
2022-08-26T21:38:31.598Z,100089.52
2022-08-26T21:41:30.696Z,100084.83
2022-08-26T21:44:12.821Z,100086.69
2022-08-26T21:46:58.613Z,100081.91
2022-08-26T21:49:59.237Z,100076.59
2022-08-26T21:52:58.453Z,100078.13
2022-08-26T21:55:39.972Z,100076.22
2022-08-26T21:58:22.127Z,100075.42
2022-08-26T22:01:02.056Z,100075.34
2022-08-26T22:03:47.072Z,100073.59
2022-08-26T22:07:06.433Z,100079.46
2022-08-26T22:09:52.984Z,100079.86
2022-08-26T22:13:01.117Z,100079.04
2022-08-26T22:15:58.683Z,100080.00
2022-08-26T22:18:39.365Z,100081.00
2022-08-26T22:21:26.877Z,100084.87
2022-08-26T22:24:13.178Z,100086.92
2022-08-26T22:26:57.436Z,100088.77
2022-08-26T22:29:57.415Z,100089.92
2022-08-26T22:32:46.163Z,100081.89
2022-08-26T22:35:29.748Z,100086.66
2022-08-26T22:38:23.010Z,100082.55
2022-08-26T22:41:24.873Z,100082.46
2022-08-26T22:44:07.885Z,100084.19
2022-08-26T22:46:55.213Z,100086.43
2022-08-26T22:49:35.614Z,100081.84
2022-08-26T22:52:22.042Z,100079.20
2022-08-26T22:55:27.937Z,100077.80
2022-08-26T22:58:16.692Z,100076.12
2022-08-26T23:01:23.180Z,100073.51
2022-08-26T23:04:00.189Z,100070.85
2022-08-26T23:06:41.604Z,100069.46
2022-08-26T23:09:26.393Z,100064.79
2022-08-26T23:12:42.237Z,100063.92
2022-08-26T23:15:34.362Z,100058.23
2022-08-26T23:18:26.459Z,100060.42
2022-08-26T23:21:15.193Z,100060.48
2022-08-26T23:23:54.024Z,100060.52
2022-08-26T23:26:37.977Z,100061.98
2022-08-26T23:30:13.025Z,100062.23
2022-08-26T23:32:57.739Z,100063.91
2022-08-26T23:35:53.603Z,100063.01
2022-08-26T23:38:37.577Z,100060.13
2022-08-26T23:41:13.351Z,100053.90
2022-08-26T23:44:05.602Z,100055.93
2022-08-26T23:46:55.253Z,100055.66
2022-08-26T23:50:01.694Z,100051.77
2022-08-26T23:52:50.128Z,100048.41
2022-08-26T23:55:24.873Z,100049.53
2022-08-26T23:58:14.536Z,100047.08
